Time,TemperatureF,DewpointF,PressureIn,WindDirection,WindDirectionDegrees,WindSpeedMPH,WindSpeedGustMPH,Humidity,HourlyPrecipIn,Conditions,Clouds,dailyrainin,SolarRadiationWatts/m^2,SoftwareType,DateUTC
2013-02-25 00:08:00,35.5,26.3,30.13,East,95,5.0,5.0,69,0.00,,,0.00,0,Wunderground v.1.15,2013-02-25 06:08:00,
2013-02-25 00:18:00,35.4,26.2,30.13,East,81,4.0,5.0,69,0.00,,,0.00,0,Wunderground v.1.15,2013-02-25 06:18:00,
2013-02-25 00:28:00,35.5,26.3,30.13,East,86,4.0,5.0,69,0.00,,,0.00,0,Wunderground v.1.15,2013-02-25 06:28:00,
2013-02-25 00:38:00,35.8,26.6,30.12,East,98,5.0,5.0,69,0.00,,,0.00,0,Wunderground v.1.15,2013-02-25 06:38:00,
2013-02-25 00:43:00,36.0,26.8,30.12,ESE,109,6.0,6.0,69,0.00,,,0.00,0,Wunderground v.1.15,2013-02-25 06:43:00,
2013-02-25 00:53:00,36.3,26.7,30.11,East,89,8.0,10.0,68,0.00,,,0.00,0,Wunderground v.1.15,2013-02-25 06:53:00,
2013-02-25 01:03:00,36.3,26.7,30.10,ESE,111,8.0,11.0,68,0.00,,,0.00,0,Wunderground v.1.15,2013-02-25 07:03:00,
2013-02-25 01:08:00,36.3,26.7,30.10,East,92,9.0,13.0,68,0.00,,,0.00,0,Wunderground v.1.15,2013-02-25 07:08:00,
2013-02-25 01:18:00,36.1,26.6,30.09,East,96,9.0,13.0,68,0.00,,,0.00,0,Wunderground v.1.15,2013-02-25 07:18:00,
2013-02-25 01:23:00,35.8,26.3,30.09,East,101,8.0,13.0,68,0.00,,,0.00,0,Wunderground v.1.15,2013-02-25 07:23:00,
2013-02-25 01:33:00,35.6,26.4,30.09,East,100,10.0,14.0,69,0.00,,,0.00,0,Wunderground v.1.15,2013-02-25 07:33:00,
2013-02-25 01:43:00,35.3,26.5,30.09,East,98,8.0,9.0,70,0.00,,,0.00,0,Wunderground v.1.15,2013-02-25 07:43:00,
2013-02-25 01:53:00,34.8,26.4,30.09,ESE,118,7.0,8.0,71,0.00,,,0.00,0,Wunderground v.1.15,2013-02-25 07:53:00,
2013-02-25 02:03:00,34.4,26.3,30.10,ESE,123,5.0,6.0,72,0.00,,,0.00,0,Wunderground v.1.15,2013-02-25 08:03:00,
2013-02-25 02:08:00,34.3,26.2,30.11,ESE,111,4.0,4.0,72,0.00,,,0.00,0,Wunderground v.1.15,2013-02-25 08:08:00,
2013-02-25 02:18:00,33.5,25.8,30.11,East,83,3.0,5.0,73,0.00,,,0.00,0,Wunderground v.1.15,2013-02-25 08:18:00,
2013-02-25 02:28:00,33.1,25.7,30.10,East,88,3.0,5.0,74,0.00,,,0.00,0,Wunderground v.1.15,2013-02-25 08:28:00,
2013-02-25 02:38:00,33.0,25.9,30.10,ENE,69,2.0,2.0,75,0.00,,,0.00,0,Wunderground v.1.15,2013-02-25 08:38:00,
2013-02-25 02:43:00,32.7,25.6,30.10,East,89,2.0,6.0,75,0.00,,,0.00,0,Wunderground v.1.15,2013-02-25 08:43:00,
2013-02-25 02:53:00,32.4,25.7,30.10,East,90,3.0,5.0,76,0.00,,,0.00,0,Wunderground v.1.15,2013-02-25 08:53:00,
2013-02-25 03:02:00,32.0,25.3,30.10,East,84,3.0,3.0,76,0.00,,,0.00,0,Wunderground v.1.15,2013-02-25 09:02:00,
2013-02-25 03:08:00,31.9,25.5,30.10,East,81,3.0,3.0,77,0.00,,,0.00,0,Wunderground v.1.15,2013-02-25 09:08:00,
2013-02-25 03:18:00,31.7,25.6,30.10,ESE,112,4.0,4.0,78,0.00,,,0.00,0,Wunderground v.1.15,2013-02-25 09:18:00,
2013-02-25 03:27:00,32.1,25.7,30.10,East,84,4.0,4.0,77,0.00,,,0.00,0,Wunderground v.1.15,2013-02-25 09:27:00,
2013-02-25 03:33:00,32.1,25.7,30.09,East,101,4.0,5.0,77,0.00,,,0.00,0,Wunderground v.1.15,2013-02-25 09:33:00,
2013-02-25 03:43:00,32.0,25.9,30.09,East,101,4.0,7.0,78,0.00,,,0.00,0,Wunderground v.1.15,2013-02-25 09:43:00,
2013-02-25 03:52:00,32.1,26.0,30.08,ESE,107,5.0,7.0,78,0.00,,,0.00,0,Wunderground v.1.15,2013-02-25 09:52:00,
2013-02-25 04:02:00,32.1,26.0,30.08,ESE,105,5.0,5.0,78,0.00,,,0.00,0,Wunderground v.1.15,2013-02-25 10:02:00,
2013-02-25 04:08:00,32.2,26.1,30.08,ESE,103,5.0,5.0,78,0.00,,,0.00,0,Wunderground v.1.15,2013-02-25 10:08:00,
2013-02-25 04:17:00,32.2,26.1,30.07,ESE,110,6.0,6.0,78,0.00,,,0.00,0,Wunderground v.1.15,2013-02-25 10:17:00,
2013-02-25 04:27:00,32.1,26.3,30.08,ESE,102,6.0,6.0,79,0.00,,,0.00,0,Wunderground v.1.15,2013-02-25 10:27:00,
2013-02-25 04:37:00,32.0,26.2,30.08,East,91,6.0,6.0,79,0.00,,,0.00,0,Wunderground v.1.15,2013-02-25 10:37:00,
2013-02-25 04:42:00,32.0,26.2,30.08,East,94,6.0,7.0,79,0.00,,,0.00,0,Wunderground v.1.15,2013-02-25 10:42:00,
2013-02-25 04:52:00,31.8,26.3,30.08,ESE,102,5.0,6.0,80,0.00,,,0.00,0,Wunderground v.1.15,2013-02-25 10:52:00,
2013-02-25 05:02:00,31.4,25.9,30.07,East,101,5.0,7.0,80,0.00,,,0.00,0,Wunderground v.1.15,2013-02-25 11:02:00,
2013-02-25 05:07:00,31.4,25.9,30.07,ENE,71,5.0,5.0,80,0.00,,,0.00,0,Wunderground v.1.15,2013-02-25 11:07:00,
2013-02-25 05:17:00,31.4,25.9,30.07,ENE,59,4.0,4.0,80,0.00,,,0.00,0,Wunderground v.1.15,2013-02-25 11:17:00,
2013-02-25 05:27:00,31.4,25.9,30.07,ENE,74,5.0,7.0,80,0.00,,,0.00,0,Wunderground v.1.15,2013-02-25 11:27:00,
2013-02-25 05:32:00,31.4,26.2,30.07,East,101,5.0,7.0,81,0.00,,,0.00,0,Wunderground v.1.15,2013-02-25 11:32:00,
2013-02-25 05:42:00,31.2,26.0,30.07,ENE,65,4.0,4.0,81,0.00,,,0.00,0,Wunderground v.1.15,2013-02-25 11:42:00,
2013-02-25 05:52:00,31.4,26.2,30.07,NE,52,4.0,4.0,81,0.00,,,0.00,0,Wunderground v.1.15,2013-02-25 11:52:00,
2013-02-25 06:02:00,31.4,26.2,30.07,East,86,4.0,4.0,81,0.00,,,0.00,0,Wunderground v.1.15,2013-02-25 12:02:00,
2013-02-25 06:07:00,31.3,26.1,30.07,ENE,75,3.0,3.0,81,0.00,,,0.00,0,Wunderground v.1.15,2013-02-25 12:07:00,
2013-02-25 06:17:00,31.4,26.2,30.07,East,79,4.0,7.0,81,0.00,,,0.00,0,Wunderground v.1.15,2013-02-25 12:17:00,
2013-02-25 06:27:00,31.4,26.2,30.07,ENE,68,5.0,5.0,81,0.00,,,0.00,0,Wunderground v.1.15,2013-02-25 12:27:00,
2013-02-25 06:32:00,31.4,26.2,30.06,ENE,73,5.0,5.0,81,0.00,,,0.00,0,Wunderground v.1.15,2013-02-25 12:32:00,
2013-02-25 06:42:00,31.2,26.0,30.07,East,85,5.0,5.0,81,0.00,,,0.00,0,Wunderground v.1.15,2013-02-25 12:42:00,
2013-02-25 06:52:00,31.2,26.0,30.08,NE,50,4.0,5.0,81,0.00,,,0.00,9,Wunderground v.1.15,2013-02-25 12:52:00,
2013-02-25 06:57:00,31.2,26.0,30.08,ENE,58,4.0,5.0,81,0.00,,,0.00,14,Wunderground v.1.15,2013-02-25 12:57:00,
2013-02-25 07:07:00,29.9,24.8,30.07,NE,54,4.0,4.0,81,0.00,,,0.00,19,Wunderground v.1.15,2013-02-25 13:07:00,
2013-02-25 07:17:00,28.9,24.4,30.07,NE,53,4.0,6.0,83,0.00,,,0.00,39,Wunderground v.1.15,2013-02-25 13:17:00,
2013-02-25 07:27:00,28.5,24.3,30.06,ENE,70,4.0,4.0,84,0.00,,,0.00,70,Wunderground v.1.15,2013-02-25 13:27:00,
2013-02-25 07:37:00,28.7,24.5,30.05,ENE,67,4.0,4.0,84,0.00,,,0.00,86,Wunderground v.1.15,2013-02-25 13:37:00,
2013-02-25 07:42:00,29.1,24.9,30.06,ENE,67,4.0,5.0,84,0.00,,,0.00,83,Wunderground v.1.15,2013-02-25 13:42:00,
2013-02-25 07:52:00,29.5,25.3,30.06,ENE,67,4.0,5.0,84,0.00,,,0.00,83,Wunderground v.1.15,2013-02-25 13:52:00,
2013-02-25 07:58:00,29.8,25.3,30.06,ENE,78,4.0,5.0,83,0.00,,,0.00,102,Wunderground v.1.15,2013-02-25 13:58:00,
2013-02-25 08:03:00,30.1,25.6,30.06,ENE,65,4.0,5.0,83,0.00,,,0.00,125,Wunderground v.1.15,2013-02-25 14:03:00,
2013-02-25 08:13:00,30.7,25.9,30.06,ESE,107,6.0,6.0,82,0.00,,,0.00,125,Wunderground v.1.15,2013-02-25 14:13:00,
2013-02-25 08:23:00,31.1,26.2,30.06,ENE,59,6.0,7.0,82,0.00,,,0.00,149,Wunderground v.1.15,2013-02-25 14:23:00,
2013-02-25 08:33:00,31.7,26.5,30.07,NE,53,5.0,6.0,81,0.00,,,0.00,167,Wunderground v.1.15,2013-02-25 14:33:00,
2013-02-25 08:43:00,32.5,27.0,30.07,ENE,75,5.0,5.0,80,0.00,,,0.00,186,Wunderground v.1.15,2013-02-25 14:43:00,
2013-02-25 08:48:00,32.8,27.0,30.06,East,83,6.0,6.0,79,0.00,,,0.00,199,Wunderground v.1.15,2013-02-25 14:48:00,
2013-02-25 08:58:00,33.3,27.2,30.05,ENE,77,6.0,6.0,78,0.00,,,0.00,250,Wunderground v.1.15,2013-02-25 14:58:00,
2013-02-25 09:08:00,33.9,27.4,30.06,ENE,78,5.0,5.0,77,0.00,,,0.00,272,Wunderground v.1.15,2013-02-25 15:08:00,
2013-02-25 09:18:00,34.5,27.7,30.07,ENE,76,5.0,7.0,76,0.00,,,0.00,272,Wunderground v.1.15,2013-02-25 15:18:00,
2013-02-25 09:23:00,34.8,28.0,30.06,East,90,6.0,7.0,76,0.00,,,0.00,267,Wunderground v.1.15,2013-02-25 15:23:00,
2013-02-25 09:33:00,35.1,28.0,30.06,East,79,7.0,7.0,75,0.00,,,0.00,295,Wunderground v.1.15,2013-02-25 15:33:00,
2013-02-25 09:43:00,35.2,27.7,30.04,ENE,69,8.0,10.0,74,0.00,,,0.00,327,Wunderground v.1.15,2013-02-25 15:43:00,
2013-02-25 09:48:00,35.4,27.9,30.04,ENE,74,9.0,11.0,74,0.00,,,0.00,320,Wunderground v.1.15,2013-02-25 15:48:00,
2013-02-25 09:58:00,35.7,28.2,30.04,East,80,8.0,8.0,74,0.00,,,0.00,285,Wunderground v.1.15,2013-02-25 15:58:00,
2013-02-25 10:07:00,36.1,28.3,30.04,ENE,67,7.0,9.0,73,0.00,,,0.00,272,Wunderground v.1.15,2013-02-25 16:07:00,
2013-02-25 10:13:00,36.2,28.4,30.04,East,84,8.0,9.0,73,0.00,,,0.00,264,Wunderground v.1.15,2013-02-25 16:13:00,
2013-02-25 10:18:00,36.4,28.6,30.03,ENE,78,8.0,13.0,73,0.00,,,0.00,264,Wunderground v.1.15,2013-02-25 16:18:00,
2013-02-25 10:28:00,36.8,28.3,30.02,ENE,66,9.0,9.0,71,0.00,,,0.00,272,Wunderground v.1.15,2013-02-25 16:28:00,
2013-02-25 10:38:00,37.4,28.5,30.03,East,98,9.0,9.0,70,0.00,,,0.00,283,Wunderground v.1.15,2013-02-25 16:38:00,
2013-02-25 10:43:00,37.8,28.5,30.03,NE,42,9.0,13.0,69,0.00,,,0.00,287,Wunderground v.1.15,2013-02-25 16:43:00,
2013-02-25 10:53:00,38.2,28.6,30.02,East,98,10.0,18.0,68,0.00,,,0.00,327,Wunderground v.1.15,2013-02-25 16:53:00,
2013-02-25 10:58:00,38.5,28.5,30.02,East,84,9.0,13.0,67,0.00,,,0.00,338,Wunderground v.1.15,2013-02-25 16:58:00,
2013-02-25 11:08:00,38.8,28.4,30.01,East,86,10.0,10.0,66,0.00,,,0.00,327,Wunderground v.1.15,2013-02-25 17:08:00,
2013-02-25 11:13:00,38.9,28.5,30.00,ENE,67,9.0,13.0,66,0.00,,,0.00,329,Wunderground v.1.15,2013-02-25 17:13:00,
2013-02-25 11:23:00,39.2,28.4,30.00,East,93,9.0,10.0,65,0.00,,,0.00,297,Wunderground v.1.15,2013-02-25 17:23:00,
2013-02-25 11:32:00,39.2,28.4,30.01,East,83,9.0,9.0,65,0.00,,,0.00,269,Wunderground v.1.15,2013-02-25 17:32:00,
2013-02-25 11:38:00,39.3,28.5,30.02,NE,55,7.0,7.0,65,0.00,,,0.00,281,Wunderground v.1.15,2013-02-25 17:38:00,
2013-02-25 11:47:00,39.9,28.7,30.02,ENE,58,6.0,6.0,64,0.00,,,0.00,276,Wunderground v.1.15,2013-02-25 17:47:00,
2013-02-25 11:53:00,40.0,28.8,30.01,NE,44,5.0,6.0,64,0.00,,,0.00,276,Wunderground v.1.15,2013-02-25 17:53:00,
2013-02-25 12:03:00,40.3,28.7,30.00,NE,45,5.0,7.0,63,0.00,,,0.00,336,Wunderground v.1.15,2013-02-25 18:03:00,
2013-02-25 12:12:00,40.8,28.4,30.00,NE,40,6.0,7.0,61,0.00,,,0.00,336,Wunderground v.1.15,2013-02-25 18:12:00,
2013-02-25 12:22:00,40.9,28.9,29.99,ENE,67,6.0,9.0,62,0.00,,,0.00,288,Wunderground v.1.15,2013-02-25 18:22:00,
2013-02-25 12:32:00,40.9,28.5,29.99,NE,34,6.0,7.0,61,0.00,,,0.00,262,Wunderground v.1.15,2013-02-25 18:32:00,
2013-02-25 12:42:00,40.9,28.5,30.00,ENE,71,6.0,7.0,61,0.00,,,0.00,260,Wunderground v.1.15,2013-02-25 18:42:00,
2013-02-25 12:52:00,41.3,28.4,30.00,NE,45,5.0,5.0,60,0.00,,,0.00,246,Wunderground v.1.15,2013-02-25 18:52:00,
2013-02-25 13:02:00,41.5,28.6,29.99,NE,41,5.0,6.0,60,0.00,,,0.00,211,Wunderground v.1.15,2013-02-25 19:02:00,
2013-02-25 13:07:00,41.5,28.6,29.99,East,79,5.0,6.0,60,0.00,,,0.00,213,Wunderground v.1.15,2013-02-25 19:07:00,
2013-02-25 13:17:00,41.4,28.5,29.98,NE,45,6.0,6.0,60,0.00,,,0.00,211,Wunderground v.1.15,2013-02-25 19:17:00,
2013-02-25 13:27:00,41.5,28.2,29.97,NE,49,6.0,6.0,59,0.00,,,0.00,178,Wunderground v.1.15,2013-02-25 19:27:00,
2013-02-25 13:32:00,41.5,28.2,29.97,NE,48,6.0,6.0,59,0.00,,,0.00,178,Wunderground v.1.15,2013-02-25 19:32:00,
2013-02-25 13:42:00,41.7,28.4,29.95,NE,36,6.0,7.0,59,0.00,,,0.00,178,Wunderground v.1.15,2013-02-25 19:42:00,
2013-02-25 13:52:00,41.6,27.9,29.94,NNE,32,7.0,7.0,58,0.00,,,0.00,141,Wunderground v.1.15,2013-02-25 19:52:00,
2013-02-25 14:02:00,41.3,28.0,29.94,NE,36,8.0,8.0,59,0.00,,,0.00,90,Wunderground v.1.15,2013-02-25 20:02:00,
2013-02-25 14:12:00,41.0,28.6,29.94,NNE,27,6.0,9.0,61,0.00,,,0.00,69,Wunderground v.1.15,2013-02-25 20:12:00,
2013-02-25 14:22:00,40.4,28.4,29.94,NE,41,6.0,11.0,62,0.00,,,0.00,60,Wunderground v.1.15,2013-02-25 20:22:00,
2013-02-25 14:27:00,40.1,28.5,29.94,NE,54,7.0,7.0,63,0.00,,,0.00,63,Wunderground v.1.15,2013-02-25 20:27:00,
2013-02-25 14:37:00,39.9,28.3,29.93,NNE,22,9.0,9.0,63,0.00,,,0.00,63,Wunderground v.1.15,2013-02-25 20:37:00,
2013-02-25 14:47:00,39.7,28.9,29.92,NNE,26,8.0,9.0,65,0.00,,,0.00,84,Wunderground v.1.15,2013-02-25 20:47:00,
2013-02-25 14:57:00,39.5,28.7,29.92,NE,37,8.0,12.0,65,0.00,,,0.00,118,Wunderground v.1.15,2013-02-25 20:57:00,
2013-02-25 15:07:00,39.3,28.5,29.91,NNE,22,10.0,14.0,65,0.00,,,0.00,90,Wunderground v.1.15,2013-02-25 21:07:00,
2013-02-25 15:12:00,39.1,28.3,29.91,NE,44,9.0,14.0,65,0.00,,,0.00,98,Wunderground v.1.15,2013-02-25 21:12:00,
2013-02-25 15:22:00,39.2,28.8,29.93,NE,49,8.0,10.0,66,0.00,,,0.00,90,Wunderground v.1.15,2013-02-25 21:22:00,
2013-02-25 15:27:00,39.3,28.5,29.95,NE,49,7.0,7.0,65,0.00,,,0.00,74,Wunderground v.1.15,2013-02-25 21:27:00,
2013-02-25 15:32:00,39.4,28.6,29.95,ENE,57,6.0,7.0,65,0.00,,,0.00,63,Wunderground v.1.15,2013-02-25 21:32:00,
2013-02-25 15:42:00,39.4,28.6,29.93,ENE,61,8.0,11.0,65,0.00,,,0.00,44,Wunderground v.1.15,2013-02-25 21:42:00,
2013-02-25 15:52:00,39.4,28.6,29.92,NE,54,12.0,12.0,65,0.00,,,0.00,84,Wunderground v.1.15,2013-02-25 21:52:00,
2013-02-25 15:58:00,39.4,28.6,29.91,NNE,33,12.0,12.0,65,0.00,,,0.00,77,Wunderground v.1.15,2013-02-25 21:58:00,
2013-02-25 16:03:00,39.4,28.6,29.90,North,360,12.0,12.0,65,0.00,,,0.00,67,Wunderground v.1.15,2013-02-25 22:03:00,
2013-02-25 16:13:00,39.5,28.7,29.89,ENE,57,12.0,13.0,65,0.00,,,0.00,62,Wunderground v.1.15,2013-02-25 22:13:00,
2013-02-25 16:23:00,39.6,28.8,29.91,East,80,12.0,13.0,65,0.00,,,0.00,58,Wunderground v.1.15,2013-02-25 22:23:00,
2013-02-25 16:28:00,39.6,28.8,29.92,NNE,32,9.0,12.0,65,0.00,,,0.00,46,Wunderground v.1.15,2013-02-25 22:28:00,
2013-02-25 16:38:00,39.7,28.9,29.92,NE,43,8.0,11.0,65,0.00,,,0.00,33,Wunderground v.1.15,2013-02-25 22:38:00,
2013-02-25 16:48:00,39.7,28.9,29.91,ENE,73,12.0,12.0,65,0.00,,,0.00,25,Wunderground v.1.15,2013-02-25 22:48:00,
2013-02-25 16:58:00,39.5,28.7,29.90,ENE,64,9.0,12.0,65,0.00,,,0.00,18,Wunderground v.1.15,2013-02-25 22:58:00,
2013-02-25 17:08:00,39.4,29.0,29.89,East,92,11.0,15.0,66,0.00,,,0.00,12,Wunderground v.1.15,2013-02-25 23:08:00,
2013-02-25 17:13:00,39.3,28.9,29.91,NNE,29,11.0,15.0,66,0.00,,,0.00,12,Wunderground v.1.15,2013-02-25 23:13:00,
2013-02-25 17:23:00,39.2,28.8,29.89,ENE,63,11.0,11.0,66,0.00,,,0.00,11,Wunderground v.1.15,2013-02-25 23:23:00,
2013-02-25 17:33:00,38.9,28.9,29.89,NE,44,11.0,11.0,67,0.00,,,0.00,11,Wunderground v.1.15,2013-02-25 23:33:00,
2013-02-25 17:43:00,38.7,29.0,29.90,ENE,63,11.0,11.0,68,0.00,,,0.00,5,Wunderground v.1.15,2013-02-25 23:43:00,
2013-02-25 17:48:00,38.6,29.3,29.89,ENE,59,11.0,11.0,69,0.00,,,0.00,0,Wunderground v.1.15,2013-02-25 23:48:00,
2013-02-25 17:58:00,38.0,30.1,29.88,NE,35,12.0,12.0,73,0.00,,,0.00,0,Wunderground v.1.15,2013-02-25 23:58:00,
2013-02-25 18:08:00,37.1,30.6,29.85,NNE,32,14.0,18.0,77,0.00,,,0.01,0,Wunderground v.1.15,2013-02-26 00:08:00,
2013-02-25 18:18:00,36.3,30.7,29.85,NE,44,14.0,14.0,80,0.00,,,0.01,0,Wunderground v.1.15,2013-02-26 00:18:00,
2013-02-25 18:23:00,36.3,31.0,29.86,NE,45,13.0,14.0,81,0.00,,,0.01,0,Wunderground v.1.15,2013-02-26 00:23:00,
2013-02-25 18:33:00,35.6,31.2,29.84,ENE,69,13.0,13.0,84,0.00,,,0.01,0,Wunderground v.1.15,2013-02-26 00:33:00,
2013-02-25 18:43:00,34.9,31.4,29.82,NE,54,12.0,12.0,87,0.00,,,0.02,0,Wunderground v.1.15,2013-02-26 00:43:00,
2013-02-25 18:53:00,34.8,31.6,29.86,ENE,72,11.0,19.0,88,0.00,,,0.02,0,Wunderground v.1.15,2013-02-26 00:53:00,
2013-02-25 19:03:00,35.2,32.0,29.83,NNE,31,13.0,13.0,88,0.00,,,0.02,0,Wunderground v.1.15,2013-02-26 01:03:00,
2013-02-25 19:13:00,35.7,31.9,29.83,ENE,64,14.0,20.0,86,0.00,,,0.02,0,Wunderground v.1.15,2013-02-26 01:13:00,
2013-02-25 19:18:00,36.1,31.7,29.83,NNE,16,14.0,14.0,84,0.00,,,0.03,0,Wunderground v.1.15,2013-02-26 01:18:00,
2013-02-25 19:28:00,36.5,31.8,29.81,NE,43,14.0,23.0,83,0.00,,,0.03,0,Wunderground v.1.15,2013-02-26 01:28:00,
2013-02-25 19:37:00,36.8,31.5,29.84,East,79,13.0,16.0,81,0.00,,,0.03,0,Wunderground v.1.15,2013-02-26 01:37:00,
2013-02-25 19:47:00,37.1,31.8,29.85,NE,53,12.0,13.0,81,0.00,,,0.03,0,Wunderground v.1.15,2013-02-26 01:47:00,
2013-02-25 19:53:00,37.2,31.6,29.85,NE,45,11.0,13.0,80,0.00,,,0.03,0,Wunderground v.1.15,2013-02-26 01:53:00,
2013-02-25 20:02:00,37.5,31.6,29.85,NE,55,13.0,18.0,79,0.00,,,0.03,0,Wunderground v.1.15,2013-02-26 02:02:00,
2013-02-25 20:12:00,37.6,31.7,29.85,ENE,61,13.0,13.0,79,0.00,,,0.03,0,Wunderground v.1.15,2013-02-26 02:12:00,
2013-02-25 20:22:00,37.3,31.7,29.85,ENE,68,12.0,16.0,80,0.00,,,0.03,0,Wunderground v.1.15,2013-02-26 02:22:00,
2013-02-25 20:32:00,36.6,32.2,29.84,East,96,11.0,18.0,84,0.00,,,0.03,0,Wunderground v.1.15,2013-02-26 02:32:00,
2013-02-25 20:37:00,36.2,32.1,29.83,ENE,76,10.0,10.0,85,0.00,,,0.04,0,Wunderground v.1.15,2013-02-26 02:37:00,
2013-02-25 20:47:00,35.1,31.9,29.84,ENE,77,12.0,12.0,88,0.00,,,0.04,0,Wunderground v.1.15,2013-02-26 02:47:00,
2013-02-25 20:52:00,34.6,31.7,29.83,ENE,62,10.0,12.0,89,0.00,,,0.04,0,Wunderground v.1.15,2013-02-26 02:52:00,
2013-02-25 21:02:00,33.9,31.6,29.83,ENE,63,9.0,10.0,91,0.00,,,0.05,0,Wunderground v.1.15,2013-02-26 03:02:00,
2013-02-25 21:12:00,33.4,31.3,29.83,East,91,9.0,9.0,92,0.00,,,0.05,0,Wunderground v.1.15,2013-02-26 03:12:00,
2013-02-25 21:22:00,33.2,31.4,29.83,ENE,73,10.0,10.0,93,0.00,,,0.05,0,Wunderground v.1.15,2013-02-26 03:22:00,
2013-02-25 21:32:00,33.2,31.7,29.83,East,99,9.0,14.0,94,0.00,,,0.05,0,Wunderground v.1.15,2013-02-26 03:32:00,
2013-02-25 21:42:00,33.2,31.7,29.82,ENE,71,10.0,17.0,94,0.00,,,0.06,0,Wunderground v.1.15,2013-02-26 03:42:00,
2013-02-25 21:52:00,33.2,31.7,29.82,NE,51,9.0,11.0,94,0.00,,,0.06,0,Wunderground v.1.15,2013-02-26 03:52:00,
2013-02-25 21:57:00,33.1,31.6,29.82,NE,40,8.0,8.0,94,0.00,,,0.06,0,Wunderground v.1.15,2013-02-26 03:57:00,
2013-02-25 22:07:00,33.0,31.5,29.81,ENE,71,10.0,10.0,94,0.00,,,0.07,0,Wunderground v.1.15,2013-02-26 04:07:00,
2013-02-25 22:12:00,33.0,31.5,29.80,NE,42,9.0,10.0,94,0.00,,,0.07,0,Wunderground v.1.15,2013-02-26 04:12:00,
2013-02-25 22:22:00,32.9,31.6,29.79,NE,49,9.0,10.0,95,0.00,,,0.07,0,Wunderground v.1.15,2013-02-26 04:22:00,
2013-02-25 22:27:00,32.9,31.4,29.78,ENE,68,9.0,13.0,94,0.00,,,0.08,0,Wunderground v.1.15,2013-02-26 04:27:00,
2013-02-25 22:37:00,32.9,31.6,29.76,NE,44,10.0,10.0,95,0.00,,,0.08,0,Wunderground v.1.15,2013-02-26 04:37:00,
2013-02-25 22:47:00,33.0,31.7,29.76,NNE,33,10.0,10.0,95,0.00,,,0.08,0,Wunderground v.1.15,2013-02-26 04:47:00,
2013-02-25 22:52:00,32.9,31.6,29.75,ENE,65,10.0,10.0,95,0.00,,,0.08,0,Wunderground v.1.15,2013-02-26 04:52:00,
2013-02-25 22:58:00,32.9,31.6,29.74,NE,51,9.0,9.0,95,0.00,,,0.09,0,Wunderground v.1.15,2013-02-26 04:58:00,
2013-02-25 23:03:00,32.9,31.6,29.74,NE,44,10.0,13.0,95,0.00,,,0.09,0,Wunderground v.1.15,2013-02-26 05:03:00,
2013-02-25 23:08:00,32.9,31.6,29.74,NE,36,9.0,9.0,95,0.00,,,0.09,0,Wunderground v.1.15,2013-02-26 05:08:00,
2013-02-25 23:13:00,32.9,31.6,29.74,NE,56,9.0,9.0,95,0.00,,,0.09,0,Wunderground v.1.15,2013-02-26 05:13:00,
2013-02-25 23:23:00,32.9,31.6,29.73,ENE,63,10.0,14.0,95,0.00,,,0.09,0,Wunderground v.1.15,2013-02-26 05:23:00,
2013-02-25 23:28:00,32.9,31.6,29.74,NE,55,10.0,10.0,95,0.00,,,0.09,0,Wunderground v.1.15,2013-02-26 05:28:00,
2013-02-25 23:33:00,32.9,31.6,29.74,NE,55,9.0,10.0,95,0.00,,,0.10,0,Wunderground v.1.15,2013-02-26 05:33:00,
2013-02-25 23:43:00,32.9,31.6,29.72,NE,34,9.0,9.0,95,0.00,,,0.10,0,Wunderground v.1.15,2013-02-26 05:43:00,
2013-02-25 23:48:00,32.9,31.6,29.72,NE,34,9.0,10.0,95,0.00,,,0.10,0,Wunderground v.1.15,2013-02-26 05:48:00,
2013-02-25 23:53:00,32.8,31.5,29.72,NNE,31,9.0,10.0,95,0.00,,,0.10,0,Wunderground v.1.15,2013-02-26 05:53:00,
2013-02-25 23:58:00,32.8,31.5,29.71,NE,42,9.0,10.0,95,0.00,,,0.10,0,Wunderground v.1.15,2013-02-26 05:58:00,